New Orleans, Louisiana
Traffic Map
Current Weather Conditions
New Orleans, Louisiana
Clear
Clear
28°
Feels Like: 29°
Wind Chill: 28° Ceiling: Unl
Heat Index: 29° Visibility: 10mi
Dew Point: 19° Wind: 8mph
Humidity: 58% Direction: 50° (NE)
Pressure: 29.97in Gusts: 0mph
Raw Report DataKVSH 191535Z AUTO 05007KT 10SM CLR 28/19 A2997 RMK AO1
Traffic Incident Summary
Active as of:
Severity:
Category:
InformationThere was an issue retrieving the traffic information for this location. Please try a different location or try again shortly.
Advertisements
Track Severe Weather on mobile